Wetterdaten: Woche 25.03.13 - 31.03.13 (KW13)
Datum Zeit Temp. A. Feuchte A. Luftdruck Regen Wind Richtung Taupunkt Windchill Windben
25.03.2013 00:00 -4,3 C 75 % 1023,7 hPa 0,0 l/m 9,6 km/h (2 Bft) O-NO -8,1 C -7,8 C 16,9 km/h (3 Bft)
25.03.2013 01:00 -4,7 C 77 % 1023,6 hPa 0,0 l/m 10,0 km/h (2 Bft) O-NO -8,2 C -8,6 C 18,2 km/h (3 Bft)
25.03.2013 02:00 -5,0 C 77 % 1023,4 hPa 0,0 l/m 10,2 km/h (2 Bft) NO -8,4 C -9,2 C 18,4 km/h (3 Bft)
25.03.2013 03:00 -5,4 C 78 % 1023,1 hPa 0,0 l/m 10,3 km/h (2 Bft) O-NO -8,5 C -9,6 C 18,0 km/h (3 Bft)
25.03.2013 04:00 -5,6 C 79 % 1023,1 hPa 0,0 l/m 10,5 km/h (2 Bft) O-NO -8,6 C -10,0 C 18,1 km/h (3 Bft)
25.03.2013 05:00 -5,7 C 80 % 1023,2 hPa 0,0 l/m 11,4 km/h (2 Bft) O-NO -8,6 C -10,9 C 19,4 km/h (3 Bft)
25.03.2013 06:00 -5,8 C 81 % 1023,3 hPa 0,0 l/m 11,7 km/h (2 Bft) O-NO -8,6 C -11,4 C 20,1 km/h (4 Bft)
25.03.2013 07:00 -5,1 C 76 % 1023,3 hPa 0,0 l/m 13,7 km/h (3 Bft) O-NO -8,7 C -12,2 C 24,4 km/h (4 Bft)
25.03.2013 08:00 -3,9 C 68 % 1023,3 hPa 0,0 l/m 16,7 km/h (3 Bft) O -8,8 C -12,7 C 29,9 km/h (5 Bft)
25.03.2013 09:00 -2,7 C 63 % 1023,2 hPa 0,0 l/m 19,2 km/h (3 Bft) O-NO -8,7 C -12,6 C 34,2 km/h (5 Bft)
25.03.2013 10:00 -2,0 C 61 % 1023,1 hPa 0,0 l/m 21,9 km/h (4 Bft) O-SO -8,6 C -13,0 C 38,5 km/h (6 Bft)
25.03.2013 11:00 -1,3 C 60 % 1022,5 hPa 0,0 l/m 19,8 km/h (3 Bft) O -8,1 C -11,2 C 34,1 km/h (5 Bft)
25.03.2013 12:00 -0,9 C 61 % 1022,0 hPa 0,0 l/m 19,5 km/h (3 Bft) O -7,6 C -10,5 C 32,9 km/h (5 Bft)
25.03.2013 13:00 -0,3 C 59 % 1021,3 hPa 0,0 l/m 19,3 km/h (3 Bft) O-NO -7,4 C -9,6 C 32,7 km/h (5 Bft)
25.03.2013 14:00 0,0 C 57 % 1020,7 hPa 0,0 l/m 20,0 km/h (4 Bft) O-NO -7,4 C -9,6 C 32,9 km/h (5 Bft)
25.03.2013 15:00 0,3 C 53 % 1020,2 hPa 0,0 l/m 19,8 km/h (4 Bft) O -8,1 C -9,2 C 33,4 km/h (5 Bft)
25.03.2013 16:00 0,4 C 53 % 1019,9 hPa 0,0 l/m 18,6 km/h (3 Bft) O -8,1 C -8,5 C 31,9 km/h (5 Bft)
25.03.2013 17:00 0,1 C 53 % 1019,8 hPa 0,0 l/m 15,4 km/h (3 Bft) O-NO -8,3 C -7,0 C 27,8 km/h (5 Bft)
25.03.2013 18:00 -0,8 C 56 % 1019,9 hPa 0,0 l/m 11,9 km/h (2 Bft) O -8,3 C -5,7 C 23,1 km/h (4 Bft)
25.03.2013 19:00 -1,4 C 58 % 1020,0 hPa 0,0 l/m 11,8 km/h (2 Bft) O-NO -8,7 C -6,4 C 21,0 km/h (4 Bft)
25.03.2013 20:00 -2,0 C 60 % 1019,9 hPa 0,0 l/m 11,1 km/h (2 Bft) O-NO -8,8 C -6,5 C 18,8 km/h (3 Bft)
25.03.2013 21:00 -2,4 C 61 % 1019,9 hPa 0,0 l/m 10,2 km/h (2 Bft) O-NO -8,8 C -6,2 C 17,8 km/h (3 Bft)
25.03.2013 22:00 -3,0 C 67 % 1019,9 hPa 0,0 l/m 8,5 km/h (2 Bft) NO -8,3 C -5,2 C 14,0 km/h (3 Bft)
25.03.2013 23:00 -3,4 C 71 % 1019,8 hPa 0,0 l/m 10,1 km/h (2 Bft) NO -7,9 C -7,3 C 17,7 km/h (3 Bft)
26.03.2013 00:00 -3,8 C 73 % 1019,6 hPa 0,0 l/m 9,2 km/h (2 Bft) O-NO -7,9 C -6,9 C 16,5 km/h (3 Bft)
26.03.2013 01:00 -4,2 C 75 % 1019,3 hPa 0,0 l/m 9,8 km/h (2 Bft) O-NO -7,9 C -7,8 C 16,8 km/h (3 Bft)
26.03.2013 02:00 -4,4 C 76 % 1019,1 hPa 0,0 l/m 11,1 km/h (2 Bft) O-NO -8,1 C -9,4 C 17,4 km/h (3 Bft)
26.03.2013 03:00 -4,8 C 78 % 1018,9 hPa 0,0 l/m 11,2 km/h (2 Bft) O-NO -8,0 C -9,8 C 19,2 km/h (3 Bft)
26.03.2013 04:00 -4,9 C 78 % 1018,8 hPa 0,0 l/m 11,1 km/h (2 Bft) O-NO -8,2 C -9,9 C 18,6 km/h (3 Bft)
26.03.2013 05:00 -5,4 C 79 % 1018,9 hPa 0,0 l/m 10,6 km/h (2 Bft) NO -8,4 C -9,9 C 16,1 km/h (3 Bft)
26.03.2013 06:00 -5,6 C 81 % 1019,0 hPa 0,0 l/m 11,8 km/h (2 Bft) O-NO -8,4 C -11,3 C 17,3 km/h (3 Bft)
26.03.2013 07:00 -4,8 C 78 % 1019,0 hPa 0,0 l/m 12,6 km/h (2 Bft) NO -7,9 C -10,9 C 19,8 km/h (4 Bft)
26.03.2013 08:00 -3,3 C 74 % 1019,1 hPa 0,0 l/m 11,6 km/h (2 Bft) O-NO -7,3 C -8,5 C 19,2 km/h (3 Bft)
26.03.2013 09:00 -1,7 C 68 % 1019,1 hPa 0,0 l/m 12,2 km/h (2 Bft) O-NO -6,9 C -7,1 C 19,8 km/h (4 Bft)
26.03.2013 10:00 -0,7 C 65 % 1019,1 hPa 0,0 l/m 13,5 km/h (3 Bft) O-NO -6,5 C -6,9 C 23,0 km/h (4 Bft)
26.03.2013 11:00 0,5 C 60 % 1018,8 hPa 0,0 l/m 15,7 km/h (3 Bft) O-NO -6,3 C -6,8 C 28,4 km/h (5 Bft)
26.03.2013 12:00 0,3 C 58 % 1018,4 hPa 0,0 l/m 16,8 km/h (3 Bft) O -7,0 C -7,6 C 28,7 km/h (5 Bft)
26.03.2013 13:00 0,9 C 57 % 1018,1 hPa 0,0 l/m 16,1 km/h (3 Bft) O-NO -6,6 C -6,5 C 27,9 km/h (5 Bft)
26.03.2013 14:00 1,0 C 59 % 1017,5 hPa 0,0 l/m 15,5 km/h (3 Bft) NO -6,2 C -6,0 C 25,2 km/h (4 Bft)
26.03.2013 15:00 1,4 C 58 % 1017,0 hPa 0,0 l/m 14,3 km/h (3 Bft) O-NO -5,9 C -4,9 C 22,4 km/h (4 Bft)
26.03.2013 16:00 1,4 C 59 % 1016,8 hPa 0,0 l/m 14,2 km/h (3 Bft) O-NO -5,7 C -4,8 C 24,1 km/h (4 Bft)
26.03.2013 17:00 0,9 C 61 % 1016,7 hPa 0,0 l/m 11,4 km/h (2 Bft) O-NO -5,9 C -3,3 C 20,9 km/h (4 Bft)
26.03.2013 18:00 0,1 C 63 % 1016,9 hPa 0,0 l/m 8,2 km/h (2 Bft) O -6,1 C -1,7 C 14,9 km/h (3 Bft)
26.03.2013 19:00 -1,1 C 68 % 1017,3 hPa 0,0 l/m 5,3 km/h (1 Bft) O-NO -6,3 C -1,1 C 9,5 km/h (2 Bft)
26.03.2013 20:00 -1,7 C 72 % 1017,5 hPa 0,0 l/m 5,9 km/h (2 Bft) NO -6,2 C -1,8 C 10,4 km/h (2 Bft)
26.03.2013 21:00 -2,6 C 78 % 1017,6 hPa 0,0 l/m 5,4 km/h (1 Bft) NO -5,9 C -2,6 C 7,9 km/h (2 Bft)
26.03.2013 22:00 -2,8 C 80 % 1017,6 hPa 0,0 l/m 9,2 km/h (2 Bft) NO -5,7 C -5,7 C 12,8 km/h (3 Bft)
26.03.2013 23:00 -3,0 C 81 % 1017,5 hPa 0,0 l/m 9,2 km/h (2 Bft) O-NO -5,8 C -6,0 C 13,7 km/h (3 Bft)
27.03.2013 00:00 -3,5 C 83 % 1017,4 hPa 0,0 l/m 7,4 km/h (2 Bft) O-NO -5,9 C -4,6 C 12,0 km/h (2 Bft)
27.03.2013 01:00 -3,7 C 85 % 1017,2 hPa 0,0 l/m 7,5 km/h (2 Bft) O-NO -5,9 C -5,1 C 12,9 km/h (3 Bft)
27.03.2013 02:00 -4,1 C 86 % 1017,1 hPa 0,0 l/m 6,4 km/h (2 Bft) NO -6,2 C -4,4 C 10,1 km/h (2 Bft)
27.03.2013 03:00 -4,7 C 87 % 1016,9 hPa 0,0 l/m 7,3 km/h (2 Bft) NO -6,5 C -5,7 C 10,4 km/h (2 Bft)
27.03.2013 04:00 -4,9 C 87 % 1016,8 hPa 0,0 l/m 7,1 km/h (2 Bft) NO -6,7 C -5,8 C 10,5 km/h (2 Bft)
27.03.2013 05:00 -4,9 C 87 % 1016,8 hPa 0,0 l/m 6,5 km/h (2 Bft) O-NO -6,8 C -5,3 C 10,9 km/h (2 Bft)
27.03.2013 06:00 -4,8 C 86 % 1016,8 hPa 0,0 l/m 8,7 km/h (2 Bft) O-NO -6,8 C -7,4 C 16,6 km/h (3 Bft)
27.03.2013 07:00 -4,3 C 84 % 1016,8 hPa 0,0 l/m 8,6 km/h (2 Bft) O-NO -6,6 C -6,9 C 16,2 km/h (3 Bft)
27.03.2013 08:00 -3,5 C 81 % 1016,9 hPa 0,0 l/m 9,5 km/h (2 Bft) O -6,3 C -6,8 C 18,5 km/h (3 Bft)
27.03.2013 09:00 -1,3 C 72 % 1017,0 hPa 0,0 l/m 11,9 km/h (2 Bft) O-NO -5,7 C -6,4 C 20,8 km/h (4 Bft)
27.03.2013 10:00 0,8 C 59 % 1016,9 hPa 0,0 l/m 13,4 km/h (3 Bft) O -6,3 C -4,9 C 23,5 km/h (4 Bft)
27.03.2013 11:00 1,1 C 56 % 1016,7 hPa 0,0 l/m 15,8 km/h (3 Bft) O -6,6 C -6,1 C 27,9 km/h (5 Bft)
27.03.2013 12:00 1,4 C 56 % 1016,4 hPa 0,0 l/m 14,9 km/h (3 Bft) O-NO -6,3 C -5,2 C 24,7 km/h (4 Bft)
27.03.2013 13:00 1,9 C 53 % 1016,0 hPa 0,0 l/m 14,8 km/h (3 Bft) NO -6,8 C -4,6 C 25,3 km/h (4 Bft)
27.03.2013 14:00 1,9 C 57 % 1015,6 hPa 0,0 l/m 14,7 km/h (3 Bft) O-NO -5,7 C -4,5 C 24,3 km/h (4 Bft)
27.03.2013 15:00 1,8 C 55 % 1015,3 hPa 0,0 l/m 15,1 km/h (3 Bft) O-NO -6,2 C -4,8 C 26,7 km/h (4 Bft)
27.03.2013 16:00 1,9 C 54 % 1015,2 hPa 0,0 l/m 12,6 km/h (3 Bft) O-NO -6,3 C -3,2 C 24,1 km/h (4 Bft)
27.03.2013 17:00 1,7 C 55 % 1015,1 hPa 0,0 l/m 11,8 km/h (2 Bft) O -6,4 C -2,9 C 21,8 km/h (4 Bft)
27.03.2013 18:00 1,1 C 58 % 1015,2 hPa 0,0 l/m 9,6 km/h (2 Bft) O-NO -6,3 C -1,9 C 18,8 km/h (3 Bft)
27.03.2013 19:00 0,4 C 61 % 1015,5 hPa 0,0 l/m 8,3 km/h (2 Bft) O-NO -6,2 C -1,6 C 15,2 km/h (3 Bft)
27.03.2013 20:00 -0,4 C 67 % 1015,6 hPa 0,0 l/m 6,9 km/h (2 Bft) O-NO -5,8 C -1,1 C 11,6 km/h (2 Bft)
27.03.2013 21:00 -0,5 C 66 % 1015,4 hPa 0,0 l/m 8,1 km/h (2 Bft) O-NO -6,0 C -2,2 C 13,3 km/h (3 Bft)
27.03.2013 22:00 -0,5 C 66 % 1015,2 hPa 0,0 l/m 7,5 km/h (2 Bft) O -6,1 C -1,6 C 13,3 km/h (3 Bft)
27.03.2013 23:00 -0,7 C 66 % 1015,0 hPa 0,0 l/m 4,4 km/h (1 Bft) O -6,3 C -0,7 C 8,6 km/h (2 Bft)
28.03.2013 00:00 -0,8 C 69 % 1015,0 hPa 0,0 l/m 7,3 km/h (2 Bft) O -5,8 C -2,7 C 13,4 km/h (3 Bft)
28.03.2013 01:00 -1,3 C 76 % 1014,8 hPa 0,0 l/m 8,0 km/h (2 Bft) O-SO -5,1 C -3,0 C 14,8 km/h (3 Bft)
28.03.2013 02:00 -1,9 C 83 % 1014,5 hPa 0,0 l/m 6,4 km/h (2 Bft) O -4,4 C -2,5 C 10,8 km/h (2 Bft)
28.03.2013 03:00 -2,4 C 88 % 1014,2 hPa 0,0 l/m 5,6 km/h (2 Bft) O-NO -4,1 C -2,4 C 10,5 km/h (2 Bft)
28.03.2013 04:00 -2,7 C 91 % 1014,0 hPa 0,0 l/m 6,1 km/h (2 Bft) O-NO -4,0 C -2,8 C 10,8 km/h (2 Bft)
28.03.2013 05:00 -2,7 C 91 % 1013,8 hPa 0,0 l/m 8,0 km/h (2 Bft) O-NO -3,9 C -4,4 C 14,9 km/h (3 Bft)
28.03.2013 06:00 -2,6 C 91 % 1013,7 hPa 0,0 l/m 8,1 km/h (2 Bft) O-NO -3,8 C -4,5 C 15,2 km/h (3 Bft)
28.03.2013 07:00 -2,6 C 92 % 1013,6 hPa 0,0 l/m 9,1 km/h (2 Bft) O-NO -3,7 C -5,4 C 15,7 km/h (3 Bft)
28.03.2013 08:00 -2,1 C 90 % 1013,5 hPa 0,0 l/m 8,8 km/h (2 Bft) O -3,6 C -4,7 C 16,0 km/h (3 Bft)
28.03.2013 09:00 -1,9 C 89 % 1013,5 hPa 0,0 l/m 8,5 km/h (2 Bft) O -3,4 C -4,1 C 15,6 km/h (3 Bft)
28.03.2013 10:00 -1,5 C 88 % 1013,3 hPa 0,0 l/m 9,0 km/h (2 Bft) O -3,3 C -4,2 C 16,2 km/h (3 Bft)
28.03.2013 11:00 -1,1 C 88 % 1013,0 hPa 0,0 l/m 8,3 km/h (2 Bft) O-NO -2,8 C -3,1 C 15,0 km/h (3 Bft)
28.03.2013 12:00 -0,8 C 87 % 1012,7 hPa 0,0 l/m 7,8 km/h (2 Bft) O-NO -2,6 C -2,3 C 14,8 km/h (3 Bft)
28.03.2013 13:00 -0,5 C 87 % 1012,5 hPa 0,0 l/m 8,6 km/h (2 Bft) O -2,4 C -2,6 C 15,8 km/h (3 Bft)
28.03.2013 14:00 -0,1 C 86 % 1012,1 hPa 0,0 l/m 9,4 km/h (2 Bft) O-NO -2,1 C -2,9 C 17,4 km/h (3 Bft)
28.03.2013 15:00 0,2 C 83 % 1011,9 hPa 0,0 l/m 9,0 km/h (2 Bft) O -2,3 C -2,3 C 15,8 km/h (3 Bft)
28.03.2013 16:00 0,5 C 83 % 1011,6 hPa 0,0 l/m 7,6 km/h (2 Bft) O -2,1 C -0,8 C 14,5 km/h (3 Bft)
28.03.2013 17:00 0,0 C 86 % 1011,5 hPa 0,0 l/m 8,1 km/h (2 Bft) O -2,0 C -1,8 C 14,2 km/h (3 Bft)
28.03.2013 18:00 -0,4 C 89 % 1011,5 hPa 0,0 l/m 5,3 km/h (1 Bft) O-NO -2,1 C -0,7 C 9,7 km/h (2 Bft)
28.03.2013 19:00 -1,1 C 91 % 1011,5 hPa 0,0 l/m 4,7 km/h (1 Bft) O-NO -2,4 C -1,1 C 8,3 km/h (2 Bft)
28.03.2013 20:00 -1,1 C 92 % 1011,3 hPa 0,0 l/m 5,7 km/h (2 Bft) NO -2,3 C -1,2 C 9,1 km/h (2 Bft)
28.03.2013 21:00 -0,9 C 92 % 1010,9 hPa 0,0 l/m 6,6 km/h (2 Bft) NO -1,9 C -1,5 C 11,3 km/h (2 Bft)
28.03.2013 22:00 -0,8 C 92 % 1010,6 hPa 0,0 l/m 6,2 km/h (2 Bft) O-NO -1,9 C -1,1 C 11,3 km/h (2 Bft)
28.03.2013 23:00 -0,8 C 92 % 1009,9 hPa 0,0 l/m 5,9 km/h (2 Bft) O-NO -1,9 C -1,0 C 10,2 km/h (2 Bft)
29.03.2013 00:00 -0,8 C 92 % 1009,4 hPa 0,0 l/m 5,5 km/h (2 Bft) O-NO -1,9 C -0,8 C 10,1 km/h (2 Bft)
29.03.2013 01:00 -0,9 C 92 % 1008,9 hPa 0,0 l/m 7,2 km/h (2 Bft) O-NO -2,0 C -1,8 C 11,8 km/h (2 Bft)
29.03.2013 02:00 -1,0 C 92 % 1008,2 hPa 0,0 l/m 8,1 km/h (2 Bft) NO -2,2 C -2,8 C 12,0 km/h (2 Bft)
29.03.2013 03:00 -1,2 C 93 % 1007,8 hPa 0,0 l/m 8,5 km/h (2 Bft) NO -2,3 C -3,4 C 12,6 km/h (3 Bft)
29.03.2013 04:00 -1,3 C 93 % 1007,6 hPa 0,0 l/m 7,5 km/h (2 Bft) NO -2,3 C -2,5 C 11,2 km/h (2 Bft)
29.03.2013 05:00 -1,5 C 94 % 1007,4 hPa 0,0 l/m 6,5 km/h (2 Bft) NO -2,3 C -1,8 C 9,9 km/h (2 Bft)
29.03.2013 06:00 -1,7 C 95 % 1007,2 hPa 0,0 l/m 7,2 km/h (2 Bft) N-NO -2,4 C -2,6 C 10,6 km/h (2 Bft)
29.03.2013 07:00 -1,5 C 95 % 1007,2 hPa 0,0 l/m 8,0 km/h (2 Bft) N-NO -2,2 C -3,2 C 11,6 km/h (2 Bft)
29.03.2013 08:00 -1,1 C 94 % 1007,3 hPa 0,0 l/m 7,0 km/h (2 Bft) N-NO -2,0 C -2,0 C 9,9 km/h (2 Bft)
29.03.2013 09:00 -0,8 C 93 % 1007,6 hPa 0,0 l/m 6,1 km/h (2 Bft) N-NW -1,8 C -1,0 C 9,3 km/h (2 Bft)
29.03.2013 10:00 -0,4 C 91 % 1007,7 hPa 0,0 l/m 6,8 km/h (2 Bft) N-NW -1,6 C -1,0 C 10,6 km/h (2 Bft)
29.03.2013 11:00 0,1 C 89 % 1007,8 hPa 0,0 l/m 7,2 km/h (2 Bft) NW -1,5 C -0,7 C 11,4 km/h (2 Bft)
29.03.2013 12:00 0,8 C 86 % 1007,7 hPa 0,0 l/m 3,9 km/h (1 Bft) NW -1,3 C 0,7 C 7,7 km/h (2 Bft)
29.03.2013 13:00 1,4 C 82 % 1007,4 hPa 0,0 l/m 5,5 km/h (2 Bft) N-NW -1,3 C 1,2 C 9,8 km/h (2 Bft)
29.03.2013 14:00 1,7 C 82 % 1007,2 hPa 0,2 l/m 3,9 km/h (1 Bft) W-NW -1,1 C 1,7 C 9,0 km/h (2 Bft)
29.03.2013 15:00 1,6 C 81 % 1007,2 hPa 0,0 l/m 3,8 km/h (1 Bft) W-NW -1,4 C 1,6 C 9,1 km/h (2 Bft)
29.03.2013 16:00 1,1 C 82 % 1007,3 hPa 0,0 l/m 4,9 km/h (1 Bft) W-NW -1,7 C 1,0 C 10,9 km/h (2 Bft)
29.03.2013 17:00 0,7 C 84 % 1007,3 hPa 0,0 l/m 2,9 km/h (1 Bft) W-NW -1,8 C 0,7 C 7,5 km/h (2 Bft)
29.03.2013 18:00 0,5 C 84 % 1007,5 hPa 0,0 l/m 2,0 km/h (1 Bft) W-NW -1,8 C 0,5 C 5,7 km/h (2 Bft)
29.03.2013 19:00 -0,0 C 88 % 1007,8 hPa 0,0 l/m 2,1 km/h (1 Bft) W-NW -1,8 C -0,0 C 5,7 km/h (2 Bft)
29.03.2013 20:00 -0,3 C 89 % 1007,8 hPa 0,0 l/m 1,4 km/h (1 Bft) W -1,9 C -0,3 C 4,9 km/h (1 Bft)
29.03.2013 21:00 -0,5 C 90 % 1007,6 hPa 0,0 l/m 0,8 km/h (0 Bft) W-SW -1,9 C -0,5 C 3,3 km/h (1 Bft)
29.03.2013 22:00 -0,5 C 91 % 1007,4 hPa 0,0 l/m 1,4 km/h (1 Bft) NW -1,8 C -0,5 C 4,1 km/h (1 Bft)
29.03.2013 23:00 -0,5 C 92 % 1007,3 hPa 0,0 l/m 1,9 km/h (1 Bft) NW -1,7 C -0,5 C 4,1 km/h (1 Bft)
30.03.2013 00:00 -0,6 C 93 % 1007,3 hPa 0,0 l/m 0,3 km/h (0 Bft) N -1,6 C -0,6 C 1,6 km/h (1 Bft)
30.03.2013 01:00 -0,7 C 93 % 1007,3 hPa 0,0 l/m 0,3 km/h (0 Bft) N -1,7 C -0,7 C 1,5 km/h (1 Bft)
30.03.2013 02:00 -0,7 C 93 % 1007,1 hPa 0,0 l/m 0,6 km/h (0 Bft) N-NW -1,6 C -0,7 C 1,5 km/h (1 Bft)
30.03.2013 03:00 -0,6 C 94 % 1007,1 hPa 0,0 l/m 0,3 km/h (0 Bft) NW -1,4 C -0,6 C 1,1 km/h (0 Bft)
30.03.2013 04:00 -0,6 C 94 % 1007,0 hPa 0,0 l/m 0,0 km/h (0 Bft) N -1,4 C -0,6 C 0,0 km/h (0 Bft)
30.03.2013 05:00 -0,6 C 94 % 1007,0 hPa 0,0 l/m 0,3 km/h (0 Bft) N-NO -1,4 C -0,6 C 0,8 km/h (0 Bft)
30.03.2013 06:00 -0,8 C 95 % 1007,3 hPa 0,0 l/m 1,6 km/h (1 Bft) NO -1,5 C -0,8 C 2,5 km/h (1 Bft)
30.03.2013 07:00 -0,7 C 95 % 1007,6 hPa 0,0 l/m 0,0 km/h (0 Bft) N -1,4 C -0,7 C 0,0 km/h (0 Bft)
30.03.2013 08:00 0,3 C 93 % 1007,8 hPa 0,2 l/m 0,0 km/h (0 Bft) N -0,7 C 0,3 C 0,0 km/h (0 Bft)
30.03.2013 09:00 0,3 C 90 % 1008,0 hPa 0,0 l/m 2,2 km/h (1 Bft) N-NO -1,1 C 0,3 C 4,0 km/h (1 Bft)
30.03.2013 10:00 0,8 C 87 % 1008,1 hPa 0,0 l/m 1,8 km/h (1 Bft) N-NO -1,2 C 0,8 C 3,3 km/h (1 Bft)
30.03.2013 11:00 1,0 C 83 % 1008,1 hPa 0,0 l/m 3,2 km/h (1 Bft) N-NO -1,6 C 1,0 C 5,9 km/h (2 Bft)
30.03.2013 12:00 1,9 C 80 % 1008,0 hPa 0,0 l/m 5,8 km/h (2 Bft) N-NO -1,2 C 0,3 C 10,9 km/h (2 Bft)
30.03.2013 13:00 1,1 C 80 % 1008,3 hPa 0,0 l/m 7,4 km/h (2 Bft) N-NW -2,0 C -0,8 C 11,1 km/h (2 Bft)
30.03.2013 14:00 2,1 C 73 % 1008,2 hPa 0,0 l/m 6,2 km/h (2 Bft) N-NO -2,1 C 1,4 C 11,5 km/h (2 Bft)
30.03.2013 15:00 2,4 C 69 % 1008,3 hPa 0,0 l/m 8,9 km/h (2 Bft) N-NO -2,7 C 0,2 C 14,1 km/h (3 Bft)
30.03.2013 16:00 2,1 C 75 % 1008,4 hPa 0,0 l/m 9,4 km/h (2 Bft) NO -2,0 C -0,5 C 14,2 km/h (3 Bft)
30.03.2013 17:00 1,6 C 74 % 1008,7 hPa 0,0 l/m 4,3 km/h (1 Bft) N-NO -2,4 C 1,5 C 7,0 km/h (2 Bft)
30.03.2013 18:00 1,0 C 79 % 1009,0 hPa 0,0 l/m 3,6 km/h (1 Bft) NO -2,2 C 1,0 C 5,7 km/h (2 Bft)
30.03.2013 19:00 0,0 C 84 % 1009,6 hPa 0,0 l/m 1,9 km/h (1 Bft) NO -2,4 C 0,0 C 3,1 km/h (1 Bft)
30.03.2013 20:00 -1,5 C 89 % 1010,1 hPa 0,0 l/m 0,0 km/h (0 Bft) N -3,1 C -1,5 C 0,0 km/h (0 Bft)
30.03.2013 21:00 -2,6 C 91 % 1010,4 hPa 0,0 l/m 0,0 km/h (0 Bft) N -3,8 C -2,6 C 0,0 km/h (0 Bft)
30.03.2013 22:00 -2,4 C 93 % 1010,7 hPa 0,0 l/m 1,0 km/h (0 Bft) N -3,4 C -2,4 C 1,6 km/h (1 Bft)
30.03.2013 23:00 -1,3 C 91 % 1010,9 hPa 0,0 l/m 3,1 km/h (1 Bft) N -2,6 C -1,3 C 4,7 km/h (1 Bft)
31.03.2013 00:00 -1,5 C 91 % 1011,1 hPa 0,0 l/m 2,6 km/h (1 Bft) N-NO -2,8 C -1,5 C 4,1 km/h (1 Bft)
31.03.2013 01:00 -2,2 C 92 % 1011,1 hPa 0,0 l/m 0,1 km/h (0 Bft) N -3,3 C -2,2 C 0,4 km/h (0 Bft)
31.03.2013 03:00 -1,4 C 93 % 1011,0 hPa 0,0 l/m 2,8 km/h (1 Bft) N-NW -2,5 C -1,4 C 4,3 km/h (1 Bft)
31.03.2013 04:00 -1,0 C 94 % 1011,0 hPa 0,0 l/m 6,5 km/h (2 Bft) N -1,9 C -1,9 C 9,4 km/h (2 Bft)
31.03.2013 05:00 -1,0 C 94 % 1011,2 hPa 0,0 l/m 8,6 km/h (2 Bft) NO -1,8 C -3,3 C 12,9 km/h (3 Bft)
31.03.2013 06:00 -1,4 C 95 % 1011,3 hPa 0,0 l/m 9,6 km/h (2 Bft) NO -2,1 C -4,6 C 14,5 km/h (3 Bft)
31.03.2013 07:00 -1,6 C 94 % 1011,8 hPa 0,0 l/m 8,2 km/h (2 Bft) N-NO -2,4 C -3,5 C 11,8 km/h (2 Bft)
31.03.2013 08:00 -1,6 C 94 % 1012,3 hPa 0,0 l/m 7,2 km/h (2 Bft) N-NO -2,5 C -2,5 C 10,6 km/h (2 Bft)
31.03.2013 09:00 -1,0 C 91 % 1012,6 hPa 0,0 l/m 9,6 km/h (2 Bft) NO -2,3 C -4,1 C 15,3 km/h (3 Bft)
31.03.2013 10:00 -0,5 C 89 % 1012,9 hPa 0,0 l/m 10,3 km/h (2 Bft) NO -2,1 C -4,1 C 15,6 km/h (3 Bft)
31.03.2013 11:00 0,9 C 83 % 1012,9 hPa 0,2 l/m 8,6 km/h (2 Bft) O-NO -1,6 C -1,2 C 16,1 km/h (3 Bft)
31.03.2013 12:00 1,7 C 72 % 1012,8 hPa 0,0 l/m 11,2 km/h (2 Bft) NO -2,7 C -2,4 C 19,4 km/h (3 Bft)
31.03.2013 13:00 2,2 C 68 % 1012,7 hPa 0,0 l/m 14,4 km/h (3 Bft) N-NO -3,0 C -3,9 C 22,2 km/h (4 Bft)
31.03.2013 14:00 1,8 C 77 % 1012,7 hPa 0,0 l/m 12,5 km/h (2 Bft) N-NO -1,9 C -3,3 C 19,2 km/h (3 Bft)
31.03.2013 15:00 1,0 C 84 % 1012,6 hPa 0,0 l/m 10,4 km/h (2 Bft) NO -1,4 C -2,5 C 15,2 km/h (3 Bft)
31.03.2013 16:00 1,7 C 74 % 1012,5 hPa 0,0 l/m 8,0 km/h (2 Bft) N-NW -2,4 C -0,0 C 14,6 km/h (3 Bft)
31.03.2013 17:00 2,1 C 68 % 1012,5 hPa 0,0 l/m 10,8 km/h (2 Bft) NO -3,2 C -1,6 C 18,0 km/h (3 Bft)
31.03.2013 18:00 1,6 C 73 % 1012,6 hPa 0,0 l/m 9,3 km/h (2 Bft) NO -2,7 C -1,0 C 15,2 km/h (3 Bft)
31.03.2013 19:00 0,8 C 79 % 1012,9 hPa 0,0 l/m 7,8 km/h (2 Bft) N-NO -2,4 C -0,7 C 12,7 km/h (3 Bft)
31.03.2013 20:00 0,2 C 82 % 1013,1 hPa 0,0 l/m 6,1 km/h (2 Bft) N-NW -2,5 C -0,7 C 8,6 km/h (2 Bft)
31.03.2013 21:00 -1,2 C 85 % 1013,3 hPa 0,0 l/m 2,6 km/h (1 Bft) N-NW -3,4 C -1,2 C 4,0 km/h (1 Bft)
31.03.2013 22:00 -1,9 C 87 % 1013,4 hPa 0,0 l/m 3,3 km/h (1 Bft) N -3,8 C -1,9 C 4,5 km/h (1 Bft)
31.03.2013 23:00 -1,9 C 84 % 1013,3 hPa 0,0 l/m 3,9 km/h (1 Bft) N -4,3 C -1,9 C 5,7 km/h (2 Bft)
Min-Datum _ 25.03.13 27.03.13 30.03.13 - 29.03.13 - 25.03.13 25.03.13 29.03.13
_ Min-Zeit 06:25 13:35 04:55 - 21:15 - 21:05 10:50 21:15
Minimum _ -5,9 C 50 % 1006,9 hPa - 0,0 km/h (0 Bft) - -9,1 C -14,8 C 0,0 km/h (0 Bft)
Max-Datum _ 30.03.13 29.03.13 25.03.13 29.03.13 25.03.13 - 30.03.13 30.03.13 25.03.13
_ Max-Zeit 12:25 06:10 00:25 14:15 10:50 - 08:20 12:20 10:50
Maximum _ 2,9 C 95 % 1023,8 hPa 0,2 l/m 26,8 km/h
O-SO (4 Bft)
- -0,2 C 2,7 C 45,1 km/h
O (6 Bft)
Durchschnitt _ -1,1 C 79 % 1013,9 hPa #0,6 l/m 8,3 km/h (2 Bft) O-NO -4,4 C -3,7 C 14,2 km/h (3 Bft)